Time;durP1;ratioP1;P1;durP2;ratioP2;P2;SDS_P1;SDS_P2;PMS_P1;PMS_P2;Temp;Humidity;BMP_temperature;BMP_pressure;BME280_temperature;BME280_humidity;BME280_pressure;Samples;Min_cycle;Max_cycle;Signal;HPM_P1;HPM_P2
2023/06/09 00:01:53;;;;;;;20.60;4.80;;;11.50;99.90;;;;;;4977636;28;20405;-70
2023/06/09 00:04:23;;;;;;;19.27;4.70;;;11.50;99.90;;;;;;4967646;28;20425;-70
2023/06/09 00:06:52;;;;;;;22.65;4.80;;;11.50;99.90;;;;;;4989207;28;20046;-69
2023/06/09 00:09:22;;;;;;;11.90;3.60;;;11.50;99.90;;;;;;4970735;28;20124;-70
2023/06/09 00:11:48;;;;;;;;;;;11.50;99.90;;;;;;4971975;28;20069;-69
2023/06/09 00:14:14;;;;;;;21.67;4.75;;;11.50;99.90;;;;;;4953318;28;19968;-69
2023/06/09 00:16:45;;;;;;;23.20;4.45;;;11.50;99.90;;;;;;4970678;28;20137;-69
2023/06/09 00:19:11;;;;;;;24.42;3.95;;;11.50;99.90;;;;;;4987342;28;20126;-69
2023/06/09 00:21:37;;;;;;;22.65;4.03;;;11.50;99.90;;;;;;4966203;28;20049;-69
2023/06/09 00:24:04;;;;;;;29.25;4.72;;;11.50;99.90;;;;;;4951689;28;20054;-68
2023/06/09 00:26:30;;;;;;;17.98;4.72;;;11.50;99.90;;;;;;4970015;28;20042;-70
2023/06/09 00:28:56;;;;;;;16.10;3.78;;;11.50;99.90;;;;;;4955714;28;20397;-69
2023/06/09 00:31:22;;;;;;;17.52;4.07;;;11.50;99.90;;;;;;4972691;28;20045;-69
2023/06/09 00:33:47;;;;;;;18.25;4.53;;;11.50;99.90;;;;;;4962297;28;20127;-70
2023/06/09 00:36:14;;;;;;;12.45;3.83;;;11.50;99.90;;;;;;4969664;28;20046;-70
2023/06/09 00:38:40;;;;;;;15.38;4.30;;;11.50;99.90;;;;;;4970789;28;20120;-69
2023/06/09 00:41:06;;;;;;;18.98;3.53;;;11.40;99.90;;;;;;4970481;28;20057;-70
2023/06/09 00:43:32;;;;;;;25.80;5.05;;;11.40;99.90;;;;;;4985675;28;20484;-70
2023/06/09 00:46:01;;;;;;;22.30;4.82;;;11.40;99.90;;;;;;4968656;28;20050;-69
2023/06/09 00:48:27;;;;;;;24.23;5.00;;;11.50;99.90;;;;;;4987098;28;20046;-70
2023/06/09 00:50:53;;;;;;;15.43;4.60;;;11.40;99.90;;;;;;4970540;28;20058;-69
2023/06/09 00:53:19;;;;;;;19.33;4.38;;;11.40;99.90;;;;;;4969285;28;20054;-69
2023/06/09 00:55:45;;;;;;;17.45;4.32;;;11.40;99.90;;;;;;4953974;28;20042;-69
2023/06/09 00:58:11;;;;;;;14.55;4.53;;;11.40;99.90;;;;;;4968665;28;20046;-69
2023/06/09 01:00:38;;;;;;;24.23;5.15;;;11.40;99.90;;;;;;4963486;28;20505;-70
2023/06/09 01:03:05;;;;;;;28.60;5.72;;;11.40;99.90;;;;;;4986275;28;20500;-69
2023/06/09 01:05:38;;;;;;;19.23;4.80;;;11.40;99.90;;;;;;4969726;28;20042;-70
2023/06/09 01:08:32;;;;;;;20.58;4.57;;;11.40;99.90;;;;;;4950459;28;20430;-69
2023/06/09 01:11:22;;;;;;;24.00;5.22;;;11.40;99.90;;;;;;4986404;28;20031;-69
2023/06/09 01:14:17;;;;;;;22.15;5.20;;;11.40;99.90;;;;;;4965676;28;20104;-69
2023/06/09 01:17:07;;;;;;;27.30;5.32;;;11.40;99.90;;;;;;4979486;28;20058;-69
2023/06/09 01:19:47;;;;;;;;;;;11.50;99.90;;;;;;4958823;28;20050;-69
2023/06/09 01:22:54;;;;;;;18.48;4.78;;;11.40;99.90;;;;;;4970674;28;19956;-69
2023/06/09 01:25:35;;;;;;;24.95;5.10;;;11.50;99.90;;;;;;4969107;28;20062;-70
2023/06/09 01:28:06;;;;;;;15.48;4.20;;;11.50;99.90;;;;;;4964361;28;20131;-69
2023/06/09 01:30:34;;;;;;;25.10;4.80;;;11.40;99.90;;;;;;4961998;28;20454;-69
2023/06/09 01:33:04;;;;;;;19.45;5.18;;;11.40;99.90;;;;;;4970095;28;20057;-69
2023/06/09 01:35:30;;;;;;;23.60;5.75;;;11.40;99.90;;;;;;4970200;28;20062;-69
2023/06/09 01:37:57;;;;;;;19.58;5.13;;;11.40;99.90;;;;;;4966959;28;20043;-70
2023/06/09 01:40:23;;;;;;;22.08;4.55;;;11.40;99.90;;;;;;4963376;28;20053;-69
2023/06/09 01:42:49;;;;;;;18.77;5.35;;;11.40;99.90;;;;;;4970402;28;20165;-69
2023/06/09 01:45:15;;;;;;;16.85;4.90;;;11.50;99.90;;;;;;4953391;28;20532;-69
2023/06/09 01:47:40;;;;;;;19.23;4.50;;;11.50;99.90;;;;;;4968547;28;20061;-69
2023/06/09 01:50:23;;;;;;;16.10;5.00;;;11.40;99.90;;;;;;4964603;28;20097;-69
2023/06/09 01:53:03;;;;;;;18.83;5.25;;;11.50;99.90;;;;;;4962404;28;20038;-69
2023/06/09 01:55:32;;;;;;;;;;;11.50;99.90;;;;;;4970969;28;20085;-69
2023/06/09 01:58:17;;;;;;;27.52;6.07;;;11.50;99.90;;;;;;4968519;28;19922;-69
2023/06/09 02:00:46;;;;;;;38.60;6.53;;;11.50;99.90;;;;;;4970203;28;20062;-69
2023/06/09 02:03:16;;;;;;;26.65;5.72;;;11.50;99.90;;;;;;4970065;28;20062;-69
2023/06/09 02:05:44;;;;;;;19.80;5.38;;;11.50;99.90;;;;;;4961483;28;20124;-69
2023/06/09 02:08:11;;;;;;;23.17;5.38;;;11.40;99.90;;;;;;4959805;28;20050;-69
2023/06/09 02:10:37;;;;;;;20.67;5.47;;;11.40;99.90;;;;;;4971061;28;20433;-69
2023/06/09 02:13:13;;;;;;;21.52;5.55;;;11.50;99.90;;;;;;4973688;28;20038;-69
2023/06/09 02:15:40;;;;;;;21.40;5.85;;;11.40;99.90;;;;;;4972122;28;20470;-69
2023/06/09 02:18:07;;;;;;;30.35;6.20;;;11.40;99.90;;;;;;4988037;28;20136;-69
2023/06/09 02:20:33;;;;;;;25.17;5.68;;;11.40;99.90;;;;;;4986166;28;20093;-69
2023/06/09 02:22:58;;;;;;;22.98;6.28;;;11.40;99.90;;;;;;4959956;28;20125;-69
2023/06/09 02:25:25;;;;;;;20.20;5.50;;;11.50;99.90;;;;;;4986269;28;20094;-69
2023/06/09 02:27:50;;;;;;;25.80;5.90;;;11.40;99.90;;;;;;4965351;28;20084;-69
2023/06/09 02:30:16;;;;;;;24.48;5.25;;;11.50;99.90;;;;;;4973925;28;20489;-69
2023/06/09 02:32:42;;;;;;;20.13;5.47;;;11.50;99.90;;;;;;4956825;28;20050;-69
2023/06/09 02:35:08;;;;;;;31.35;5.63;;;11.50;99.90;;;;;;4971302;28;20038;-70
2023/06/09 02:37:35;;;;;;;21.13;5.13;;;11.50;99.90;;;;;;4987967;28;20069;-68
2023/06/09 02:40:01;;;;;;;26.38;5.50;;;11.50;99.90;;;;;;4972765;28;20519;-69
2023/06/09 02:42:26;;;;;;;29.48;5.22;;;11.50;99.90;;;;;;4972838;28;20043;-69
2023/06/09 02:44:54;;;;;;;27.73;5.72;;;11.50;99.90;;;;;;4969863;28;20057;-69
2023/06/09 02:47:20;;;;;;;21.08;5.38;;;11.40;99.90;;;;;;4963239;28;20261;-68
2023/06/09 02:49:47;;;;;;;25.40;5.35;;;11.40;99.90;;;;;;4971413;28;20105;-69
2023/06/09 02:52:13;;;;;;;21.08;5.28;;;11.50;99.90;;;;;;4956586;28;20060;-69
2023/06/09 02:54:39;;;;;;;22.35;5.32;;;11.40;99.90;;;;;;4971870;28;20137;-68
2023/06/09 02:57:06;;;;;;;16.48;5.63;;;11.50;99.90;;;;;;4963091;28;20039;-69
2023/06/09 02:59:32;;;;;;;27.65;6.72;;;11.50;99.90;;;;;;4972017;28;20140;-69
2023/06/09 03:01:58;;;;;;;22.35;6.32;;;11.50;99.90;;;;;;4977341;28;20559;-69
2023/06/09 03:04:24;;;;;;;27.25;6.82;;;11.50;99.90;;;;;;4956674;28;20141;-69
2023/06/09 03:06:50;;;;;;;16.80;6.28;;;11.50;99.90;;;;;;4960794;28;20057;-69
2023/06/09 03:09:17;;;;;;;27.35;6.25;;;11.40;99.90;;;;;;4957995;28;20430;-68
2023/06/09 03:11:43;;;;;;;20.67;6.53;;;11.50;99.90;;;;;;4971271;28;20054;-69
2023/06/09 03:14:08;;;;;;;25.27;6.18;;;11.50;99.90;;;;;;4972061;28;20477;-68
2023/06/09 03:16:34;;;;;;;20.33;6.15;;;11.50;99.90;;;;;;4965786;28;20074;-69
2023/06/09 03:19:01;;;;;;;18.90;5.15;;;11.50;99.90;;;;;;4968841;28;20595;-69
2023/06/09 03:21:26;;;;;;;17.73;6.22;;;11.50;99.90;;;;;;4971433;28;20058;-69
2023/06/09 03:23:52;;;;;;;25.20;6.63;;;11.60;99.90;;;;;;4971105;28;20586;-69
2023/06/09 03:26:18;;;;;;;21.73;5.50;;;11.60;99.90;;;;;;4956019;28;20093;-69
2023/06/09 03:28:43;;;;;;;17.35;5.85;;;11.60;99.90;;;;;;4970527;28;20105;-69
2023/06/09 03:31:10;;;;;;;16.00;5.20;;;11.60;99.90;;;;;;4972525;28;20481;-70
2023/06/09 03:33:36;;;;;;;21.25;5.55;;;11.60;99.90;;;;;;4971061;28;20050;-68
2023/06/09 03:36:02;;;;;;;25.88;6.07;;;11.60;99.90;;;;;;4971918;28;20536;-69
2023/06/09 03:38:28;;;;;;;28.00;5.55;;;11.60;99.90;;;;;;4955469;28;20050;-69
2023/06/09 03:40:54;;;;;;;23.70;5.63;;;11.60;99.90;;;;;;4971447;28;20120;-69
2023/06/09 03:43:19;;;;;;;22.88;5.22;;;11.60;99.90;;;;;;4972077;28;20089;-69
2023/06/09 03:45:45;;;;;;;25.67;5.57;;;11.70;99.90;;;;;;4970763;28;20352;-70
2023/06/09 03:48:11;;;;;;;27.30;6.15;;;11.60;99.90;;;;;;4971481;28;20054;-69
2023/06/09 03:50:37;;;;;;;20.50;6.07;;;11.60;99.90;;;;;;4970616;28;20129;-69
2023/06/09 03:53:03;;;;;;;22.10;6.38;;;11.70;99.90;;;;;;4955842;28;20047;-68
2023/06/09 03:55:31;;;;;;;27.98;5.47;;;11.70;99.90;;;;;;4978479;28;20046;-69
2023/06/09 03:57:57;;;;;;;22.42;6.00;;;11.70;99.90;;;;;;4983438;28;20536;-69
2023/06/09 04:00:23;;;;;;;27.05;6.30;;;11.70;99.90;;;;;;4986298;28;20065;-69
2023/06/09 04:02:49;;;;;;;21.23;5.90;;;11.70;99.90;;;;;;4960285;28;20133;-69
2023/06/09 04:05:15;;;;;;;21.20;6.10;;;11.80;99.90;;;;;;4988776;28;20158;-69
2023/06/09 04:07:42;;;;;;;19.77;5.63;;;11.80;99.90;;;;;;4970078;28;20101;-69
2023/06/09 04:10:08;;;;;;;24.35;6.57;;;11.80;99.90;;;;;;4956714;28;20085;-69
2023/06/09 04:12:34;;;;;;;27.83;5.97;;;11.90;99.90;;;;;;4969749;28;20031;-69
2023/06/09 04:15:00;;;;;;;21.90;7.30;;;11.90;99.90;;;;;;4970715;28;20125;-69
2023/06/09 04:17:27;;;;;;;26.70;6.65;;;11.90;99.90;;;;;;4970548;28;20645;-69
2023/06/09 04:19:54;;;;;;;23.95;6.47;;;11.90;99.90;;;;;;4964488;28;20073;-69
2023/06/09 04:22:21;;;;;;;19.90;5.78;;;11.90;99.90;;;;;;4964556;28;20397;-69
2023/06/09 04:24:47;;;;;;;21.23;6.00;;;11.90;99.90;;;;;;4969325;28;20127;-69
2023/06/09 04:27:15;;;;;;;24.42;5.97;;;12.00;99.90;;;;;;4948084;28;20047;-69
2023/06/09 04:29:44;;;;;;;19.05;5.75;;;12.10;99.90;;;;;;4952106;28;20081;-69
2023/06/09 04:32:11;;;;;;;29.13;5.55;;;12.10;99.90;;;;;;4953421;28;20057;-69
2023/06/09 04:34:39;;;;;;;14.30;5.30;;;12.20;99.90;;;;;;4969214;28;20050;-69
2023/06/09 04:37:08;;;;;;;27.25;5.90;;;12.30;99.90;;;;;;4949295;28;20059;-69
2023/06/09 04:39:34;;;;;;;20.38;5.13;;;12.30;99.90;;;;;;4968360;28;20082;-69
2023/06/09 04:42:03;;;;;;;20.38;5.85;;;12.30;99.90;;;;;;4951437;28;20104;-69
2023/06/09 04:44:32;;;;;;;25.58;5.68;;;12.50;99.90;;;;;;4955517;28;20401;-69
2023/06/09 04:46:58;;;;;;;26.33;5.77;;;12.50;99.90;;;;;;4954247;28;20089;-69
2023/06/09 04:49:25;;;;;;;21.13;5.00;;;12.60;99.90;;;;;;4966473;28;20093;-70
2023/06/09 04:51:51;;;;;;;16.33;4.55;;;12.70;99.90;;;;;;4970076;28;20054;-69
2023/06/09 04:54:18;;;;;;;24.05;5.22;;;12.70;99.90;;;;;;4970354;28;20066;-69
2023/06/09 04:56:49;;;;;;;21.38;5.05;;;12.80;99.90;;;;;;4970634;28;20060;-69
2023/06/09 04:59:15;;;;;;;18.45;4.60;;;12.80;99.90;;;;;;4963507;28;20477;-69
2023/06/09 05:01:41;;;;;;;24.40;5.65;;;12.80;99.90;;;;;;4958462;28;20086;-68
2023/06/09 05:04:07;;;;;;;22.58;5.03;;;13.00;99.90;;;;;;4949226;28;20084;-69
2023/06/09 05:06:33;;;;;;;23.20;5.18;;;13.10;99.90;;;;;;4971071;28;20049;-69
2023/06/09 05:08:59;;;;;;;12.20;4.75;;;13.20;99.90;;;;;;4975808;28;20043;-69
2023/06/09 05:11:25;;;;;;;19.38;5.05;;;13.30;99.90;;;;;;4954386;28;20307;-69
2023/06/09 05:13:51;;;;;;;21.60;5.28;;;13.40;99.90;;;;;;4970306;28;20050;-68
2023/06/09 05:16:17;;;;;;;22.83;5.65;;;13.40;99.90;;;;;;4969242;28;20096;-68
2023/06/09 05:18:43;;;;;;;16.05;5.55;;;13.50;99.90;;;;;;4948497;28;20167;-69
2023/06/09 05:21:10;;;;;;;28.27;5.32;;;13.40;99.90;;;;;;4968265;28;20046;-68
2023/06/09 05:23:35;;;;;;;20.25;5.30;;;13.50;99.90;;;;;;4970384;28;20038;-69
2023/06/09 05:26:02;;;;;;;19.27;5.32;;;13.50;99.90;;;;;;4952828;28;20116;-69
2023/06/09 05:28:28;;;;;;;20.75;5.95;;;13.60;99.90;;;;;;4961479;28;20122;-68
2023/06/09 05:30:54;;;;;;;14.52;5.53;;;13.60;99.90;;;;;;4954968;28;20533;-69
2023/06/09 05:33:22;;;;;;;20.77;5.28;;;13.60;99.90;;;;;;4952076;28;20054;-69
2023/06/09 05:35:48;;;;;;;19.95;5.35;;;13.70;99.90;;;;;;4964723;28;20536;-69
2023/06/09 05:38:13;;;;;;;17.77;4.85;;;13.80;99.90;;;;;;4968196;28;20058;-70
2023/06/09 05:40:39;;;;;;;23.15;5.07;;;13.80;99.90;;;;;;4970609;28;20050;-69
2023/06/09 05:43:05;;;;;;;21.60;5.00;;;13.80;99.90;;;;;;4969171;28;20039;-69
2023/06/09 05:45:31;;;;;;;23.35;5.60;;;14.00;99.90;;;;;;4972695;28;20574;-69
2023/06/09 05:47:57;;;;;;;16.00;4.18;;;14.00;99.90;;;;;;4972715;28;20042;-69
2023/06/09 05:50:23;;;;;;;19.02;4.85;;;14.00;99.90;;;;;;4969285;28;20051;-69
2023/06/09 05:52:48;;;;;;;17.92;5.07;;;14.00;99.90;;;;;;4940464;29;20402;-69
2023/06/09 05:55:16;;;;;;;14.65;4.55;;;14.10;99.90;;;;;;4980654;28;20050;-69
2023/06/09 05:57:45;;;;;;;23.27;5.45;;;14.10;99.90;;;;;;4954730;28;20133;-69
2023/06/09 06:00:13;;;;;;;21.98;5.00;;;14.20;99.90;;;;;;4953391;28;20046;-69
2023/06/09 06:02:39;;;;;;;24.55;5.38;;;14.30;99.90;;;;;;4953555;28;20143;-69
2023/06/09 06:05:06;;;;;;;18.15;5.15;;;14.30;99.90;;;;;;4974383;28;20129;-69
2023/06/09 06:07:36;;;;;;;28.17;5.88;;;14.40;99.90;;;;;;4938362;28;20123;-69
2023/06/09 06:10:03;;;;;;;15.23;4.70;;;14.40;99.90;;;;;;4963117;28;20061;-69
2023/06/09 06:12:30;;;;;;;17.13;4.90;;;14.50;99.90;;;;;;4964979;28;20049;-70
2023/06/09 06:14:56;;;;;;;21.95;4.95;;;14.60;99.90;;;;;;4973850;28;20054;-69
2023/06/09 06:17:21;;;;;;;20.42;5.00;;;14.70;99.90;;;;;;4971642;28;20054;-70
2023/06/09 06:19:47;;;;;;;28.27;5.25;;;14.70;99.90;;;;;;4972763;28;20550;-69
2023/06/09 06:22:14;;;;;;;19.05;5.00;;;14.80;99.90;;;;;;4988053;28;20043;-69
2023/06/09 06:24:39;;;;;;;16.45;4.82;;;14.90;99.90;;;;;;4958653;28;20420;-69
2023/06/09 06:27:05;;;;;;;20.00;5.25;;;14.90;99.90;;;;;;4937190;28;20356;-69
2023/06/09 06:29:32;;;;;;;17.50;5.20;;;15.00;99.90;;;;;;4950795;28;20082;-69
2023/06/09 06:31:58;;;;;;;19.23;4.88;;;15.10;99.90;;;;;;4940179;28;20158;-68
2023/06/09 06:34:25;;;;;;;18.40;5.03;;;15.20;99.90;;;;;;4952076;28;20126;-69
2023/06/09 06:36:50;;;;;;;22.45;5.97;;;15.20;99.90;;;;;;4971562;28;20054;-69
2023/06/09 06:39:16;;;;;;;15.13;4.72;;;15.40;99.90;;;;;;4952403;28;20615;-70
2023/06/09 06:41:43;;;;;;;16.95;4.88;;;15.50;99.90;;;;;;4934506;29;20398;-69
2023/06/09 06:44:08;;;;;;;14.68;5.45;;;15.60;99.90;;;;;;4941473;28;20475;-69
2023/06/09 06:46:34;;;;;;;24.40;6.22;;;15.60;99.90;;;;;;4953443;28;20461;-69
2023/06/09 06:49:01;;;;;;;15.85;4.90;;;15.80;99.90;;;;;;4937038;28;20058;-70
2023/06/09 06:51:27;;;;;;;18.50;5.15;;;15.80;99.90;;;;;;4949981;28;20050;-69
2023/06/09 06:53:53;;;;;;;24.20;5.43;;;15.90;99.90;;;;;;4948522;28;20055;-69
2023/06/09 06:56:19;;;;;;;15.63;5.38;;;16.00;99.90;;;;;;4934616;28;20039;-69
2023/06/09 06:58:48;;;;;;;17.48;5.13;;;16.00;99.90;;;;;;4948564;28;20066;-69
2023/06/09 07:01:17;;;;;;;17.75;4.82;;;16.20;99.90;;;;;;4951126;28;20513;-68
2023/06/09 07:03:43;;;;;;;20.52;6.10;;;16.30;99.90;;;;;;4950363;28;20144;-68
2023/06/09 07:06:09;;;;;;;15.85;4.75;;;16.40;99.90;;;;;;4952779;28;20054;-67
2023/06/09 07:08:35;;;;;;;21.70;5.13;;;16.40;99.90;;;;;;4952251;28;20088;-68
2023/06/09 07:11:02;;;;;;;16.30;4.53;;;16.50;99.90;;;;;;4951103;28;20909;-68
2023/06/09 07:13:27;;;;;;;15.02;4.65;;;16.60;99.90;;;;;;4961431;28;20046;-68
2023/06/09 07:15:53;;;;;;;16.52;4.78;;;16.70;99.90;;;;;;4956462;28;20057;-68
2023/06/09 07:18:19;;;;;;;13.07;4.53;;;16.80;99.90;;;;;;4969140;28;20082;-69
2023/06/09 07:20:48;;;;;;;20.75;5.05;;;16.80;99.90;;;;;;4968848;28;20052;-69
2023/06/09 07:23:13;;;;;;;18.35;4.82;;;17.00;99.90;;;;;;4987009;28;20092;-69
2023/06/09 07:25:39;;;;;;;22.02;4.45;;;17.20;99.90;;;;;;4964141;28;20062;-68
2023/06/09 07:28:05;;;;;;;14.27;4.47;;;17.30;99.90;;;;;;4968978;28;20053;-68
2023/06/09 07:30:31;;;;;;;15.40;5.00;;;17.50;99.90;;;;;;4959702;28;20041;-68
2023/06/09 07:32:58;;;;;;;14.07;4.43;;;17.60;99.90;;;;;;4989493;28;20054;-68
2023/06/09 07:35:24;;;;;;;15.75;4.10;;;17.80;99.90;;;;;;4972273;28;20054;-68
2023/06/09 07:37:50;;;;;;;16.00;4.63;;;18.00;99.90;;;;;;4971655;28;20472;-68
2023/06/09 07:40:17;;;;;;;16.70;4.63;;;18.20;99.90;;;;;;4970816;28;20046;-68
2023/06/09 07:42:42;;;;;;;15.52;4.30;;;18.50;99.90;;;;;;4973605;28;20117;-67
2023/06/09 07:45:10;;;;;;;19.95;4.95;;;18.80;99.90;;;;;;4977447;28;20050;-68
2023/06/09 07:47:36;;;;;;;17.30;4.40;;;19.00;99.90;;;;;;4969263;28;20061;-68
2023/06/09 07:50:03;;;;;;;12.77;4.28;;;19.10;99.90;;;;;;4955733;28;20070;-67
2023/06/09 07:52:29;;;;;;;23.42;4.57;;;19.40;98.00;;;;;;4987530;28;20061;-68
2023/06/09 07:54:55;;;;;;;13.85;4.60;;;19.70;98.80;;;;;;4966225;28;20435;-68
2023/06/09 07:57:21;;;;;;;11.05;4.13;;;19.90;87.40;;;;;;4952842;28;20401;-67
2023/06/09 07:59:47;;;;;;;19.10;4.40;;;20.10;94.70;;;;;;4979362;28;20165;-68
2023/06/09 08:02:14;;;;;;;14.93;4.13;;;20.40;84.40;;;;;;4963090;28;20139;-68
2023/06/09 08:04:41;;;;;;;13.57;4.32;;;20.60;85.40;;;;;;4987388;28;20489;-68
2023/06/09 08:07:07;;;;;;;12.55;4.32;;;20.80;72.70;;;;;;4961327;28;20042;-68
2023/06/09 08:09:33;;;;;;;12.93;4.10;;;20.80;60.00;;;;;;4987326;28;20563;-68
2023/06/09 08:11:58;;;;;;;15.27;4.22;;;21.00;58.90;;;;;;4971304;28;20181;-68
2023/06/09 08:14:24;;;;;;;18.20;4.00;;;21.30;44.60;;;;;;4986866;28;20054;-68
2023/06/09 08:16:52;;;;;;;7.68;3.42;;;21.50;39.80;;;;;;4960055;28;20134;-68
2023/06/09 08:19:18;;;;;;;12.05;3.70;;;21.70;44.40;;;;;;4955612;28;20456;-68
2023/06/09 08:21:44;;;;;;;12.38;4.50;;;21.90;26.80;;;;;;4978297;28;20066;-68
2023/06/09 08:24:13;;;;;;;11.65;3.55;;;22.00;24.50;;;;;;4969854;28;20054;-68
2023/06/09 08:26:41;;;;;;;10.65;4.13;;;22.10;27.10;;;;;;4983279;28;20054;-68
2023/06/09 08:29:07;;;;;;;17.45;3.92;;;22.20;27.90;;;;;;4969554;28;20054;-67
2023/06/09 08:31:36;;;;;;;17.42;3.70;;;22.40;24.10;;;;;;4961579;28;20065;-67
2023/06/09 08:34:02;;;;;;;12.27;4.07;;;22.40;30.50;;;;;;4977617;28;20072;-68
2023/06/09 08:36:28;;;;;;;20.23;3.78;;;22.50;13.10;;;;;;4983021;28;20496;-69
2023/06/09 08:38:55;;;;;;;9.88;3.10;;;22.60;17.10;;;;;;4965783;28;20062;-68
2023/06/09 08:41:27;;;;;;;13.98;3.97;;;22.70;16.90;;;;;;4969895;28;20058;-68
2023/06/09 08:43:53;;;;;;;15.18;4.45;;;22.50;17.60;;;;;;4969668;28;20048;-68
2023/06/09 08:46:23;;;;;;;16.17;4.28;;;22.50;12.90;;;;;;4970372;28;20050;-68
2023/06/09 08:48:59;;;;;;;14.50;4.50;;;22.50;15.60;;;;;;4986466;28;20125;-68
2023/06/09 08:51:26;;;;;;;17.13;4.07;;;22.60;15.00;;;;;;4982418;28;20140;-68
2023/06/09 08:53:53;;;;;;;8.35;3.78;;;22.70;17.80;;;;;;4968701;28;20523;-68
2023/06/09 08:56:23;;;;;;;12.13;3.88;;;22.90;12.40;;;;;;4988827;28;20531;-68
2023/06/09 08:58:51;;;;;;;13.63;4.00;;;22.90;16.50;;;;;;4975262;28;20108;-67
2023/06/09 09:01:18;;;;;;;8.85;2.92;;;23.00;12.40;;;;;;4971534;28;20041;-68
2023/06/09 09:03:46;;;;;;;11.23;3.80;;;23.00;14.40;;;;;;4970433;28;20057;-67
2023/06/09 09:06:13;;;;;;;15.35;4.20;;;23.20;8.30;;;;;;4989370;28;20053;-68
2023/06/09 09:08:39;;;;;;;14.02;3.80;;;23.40;15.50;;;;;;4960686;28;20195;-68
2023/06/09 09:11:05;;;;;;;7.00;3.38;;;23.50;16.10;;;;;;4985958;28;20077;-68
2023/06/09 09:13:31;;;;;;;12.85;3.10;;;23.60;11.40;;;;;;4968293;28;20144;-69
2023/06/09 09:16:00;;;;;;;10.38;3.80;;;23.60;5.10;;;;;;4974313;28;20046;-68
2023/06/09 09:18:35;;;;;;;11.27;3.60;;;23.70;9.70;;;;;;4986195;28;20054;-68
2023/06/09 09:21:02;;;;;;;12.05;3.67;;;23.70;12.90;;;;;;4972262;28;20094;-68
2023/06/09 09:23:32;;;;;;;12.55;4.25;;;23.80;12.10;;;;;;4982817;28;20165;-68
2023/06/09 09:26:05;;;;;;;5.93;2.92;;;23.80;2.00;;;;;;4971875;28;20042;-68
2023/06/09 09:28:42;;;;;;;12.65;4.07;;;23.90;8.80;;;;;;4990805;28;20051;-68
2023/06/09 09:31:08;;;;;;;5.82;2.83;;;24.00;6.60;;;;;;4962923;28;20141;-69
2023/06/09 09:33:39;;;;;;;7.65;3.17;;;24.10;1.00;;;;;;4985747;28;20049;-68
2023/06/09 09:36:10;;;;;;;7.57;3.20;;;24.10;2.20;;;;;;4987070;28;20042;-68
2023/06/09 09:38:36;;;;;;;13.18;3.25;;;24.30;4.10;;;;;;4982628;28;20119;-68
2023/06/09 09:41:04;;;;;;;7.40;2.88;;;24.40;6.40;;;;;;4962207;28;20049;-68
2023/06/09 09:43:30;;;;;;;8.18;3.03;;;24.40;1.00;;;;;;4973354;28;20038;-69
2023/06/09 09:46:07;;;;;;;10.90;3.00;;;24.30;1.00;;;;;;4981817;28;20069;-68
2023/06/09 09:48:39;;;;;;;7.28;2.95;;;24.30;2.70;;;;;;5002920;28;20318;-69
2023/06/09 09:51:08;;;;;;;8.38;2.85;;;24.40;1.00;;;;;;5006441;28;20049;-68
2023/06/09 09:53:35;;;;;;;8.80;3.42;;;24.60;1.00;;;;;;4984892;28;20587;-68
2023/06/09 09:56:01;;;;;;;7.82;3.33;;;24.70;1.00;;;;;;5007646;28;20050;-68
2023/06/09 09:58:38;;;;;;;8.38;3.25;;;24.70;1.00;;;;;;4982173;28;20085;-68
2023/06/09 10:01:07;;;;;;;6.65;3.15;;;24.80;1.00;;;;;;5004283;28;20034;-68
2023/06/09 10:03:43;;;;;;;9.25;3.20;;;24.80;1.00;;;;;;4984906;28;20417;-68
2023/06/09 10:06:16;;;;;;;5.93;2.80;;;24.80;1.00;;;;;;5001131;28;20454;-68
2023/06/09 10:08:43;;;;;;;6.90;2.80;;;24.80;1.00;;;;;;4964544;28;20058;-68
2023/06/09 10:11:10;;;;;;;6.90;3.00;;;24.80;1.00;;;;;;4989046;28;20047;-68
2023/06/09 10:13:36;;;;;;;8.30;3.10;;;24.90;1.00;;;;;;4971520;28;20050;-68
2023/06/09 10:16:04;;;;;;;10.50;3.25;;;25.00;1.00;;;;;;4984405;28;20820;-68
2023/06/09 10:18:32;;;;;;;6.82;2.85;;;25.00;1.00;;;;;;4988453;28;20046;-68
2023/06/09 10:20:58;;;;;;;5.38;2.75;;;25.10;1.00;;;;;;4989202;28;20087;-68
2023/06/09 10:23:25;;;;;;;9.32;3.20;;;25.00;1.00;;;;;;4971572;28;20116;-68
2023/06/09 10:25:51;;;;;;;10.90;2.78;;;24.90;1.00;;;;;;4972557;28;20050;-68
2023/06/09 10:28:18;;;;;;;5.25;2.60;;;24.90;1.00;;;;;;4969528;28;20581;-68
2023/06/09 10:30:49;;;;;;;5.88;3.05;;;24.90;1.00;;;;;;4949231;28;20047;-68
2023/06/09 10:33:26;;;;;;;12.35;3.20;;;25.00;1.00;;;;;;4970872;28;20485;-68
2023/06/09 10:35:58;;;;;;;6.15;2.70;;;25.10;1.00;;;;;;4982821;28;20576;-68
2023/06/09 10:38:30;;;;;;;9.75;3.17;;;25.10;1.00;;;;;;4971700;28;20097;-68
2023/06/09 10:41:04;;;;;;;10.75;3.28;;;25.30;1.00;;;;;;4951378;28;20047;-68
2023/06/09 10:44:17;;;;;;;4.30;2.30;;;25.20;1.00;;;;;;4985203;28;20488;-68
2023/06/09 10:46:45;;;;;;;11.05;2.63;;;25.10;1.00;;;;;;4964108;28;20084;-68
2023/06/09 10:49:27;;;;;;;8.50;2.80;;;25.00;1.00;;;;;;5001792;28;20054;-68
2023/06/09 10:51:55;;;;;;;10.40;3.42;;;25.10;1.00;;;;;;4961794;28;20065;-68
2023/06/09 10:54:25;;;;;;;3.40;2.42;;;25.20;1.00;;;;;;4987384;28;20566;-69
2023/06/09 10:57:06;;;;;;;6.88;2.72;;;25.30;1.00;;;;;;4989109;28;20498;-68
2023/06/09 10:59:32;;;;;;;7.43;2.80;;;25.30;1.00;;;;;;4967713;28;20054;-68
2023/06/09 11:04:41;;;;;;;6.38;2.78;;;25.30;1.00;;;;;;4990301;28;20460;-69
2023/06/09 11:07:15;;;;;;;6.65;2.80;;;25.40;1.00;;;;;;4978577;28;20401;-68
2023/06/09 11:10:00;;;;;;;7.18;2.92;;;25.40;1.00;;;;;;4972773;28;20077;-69
2023/06/09 11:12:39;;;;;;;11.95;2.60;;;25.30;1.00;;;;;;4963219;28;20523;-68
2023/06/09 11:15:07;;;;;;;6.75;2.75;;;25.40;1.00;;;;;;4982957;28;20046;-68
2023/06/09 11:17:33;;;;;;;7.33;2.87;;;25.30;1.00;;;;;;4987757;28;20056;-69
2023/06/09 11:20:26;;;;;;;8.00;2.53;;;25.30;1.00;;;;;;5009978;28;20058;-68
2023/06/09 11:22:51;;;;;;;6.93;3.20;;;25.30;1.00;;;;;;4998863;28;20088;-68
2023/06/09 11:25:26;;;;;;;6.47;2.67;;;25.40;1.00;;;;;;4997800;28;20073;-68
2023/06/09 11:27:59;;;;;;;7.60;2.83;;;25.50;1.00;;;;;;4989335;28;20049;-68
2023/06/09 11:30:28;;;;;;;3.75;2.40;;;25.40;1.00;;;;;;4986538;28;20054;-69
2023/06/09 11:32:59;;;;;;;4.80;2.83;;;25.30;1.00;;;;;;5002247;28;20512;-69
2023/06/09 11:35:28;;;;;;;3.17;2.28;;;25.30;1.00;;;;;;4999182;28;20082;-69
2023/06/09 11:37:56;;;;;;;8.35;2.50;;;25.30;1.00;;;;;;4990137;28;20064;-69
2023/06/09 11:40:22;;;;;;;6.22;2.38;;;25.30;1.00;;;;;;4991680;28;20050;-69
2023/06/09 11:42:51;;;;;;;7.55;2.42;;;25.30;1.00;;;;;;4983994;28;20054;-68
2023/06/09 11:45:17;;;;;;;3.13;2.58;;;25.40;1.00;;;;;;5003857;28;20050;-69
2023/06/09 11:47:45;;;;;;;6.95;2.63;;;25.50;1.00;;;;;;5001592;28;20092;-68
2023/06/09 11:50:15;;;;;;;7.65;2.70;;;25.70;1.00;;;;;;4989146;28;20121;-68
2023/06/09 11:52:45;;;;;;;3.95;2.60;;;25.70;1.00;;;;;;4986855;28;20397;-69
2023/06/09 11:55:15;;;;;;;10.23;2.53;;;25.70;1.00;;;;;;4981160;28;20046;-68
2023/06/09 11:57:41;;;;;;;9.45;2.88;;;25.70;1.00;;;;;;5008144;28;20050;-69
2023/06/09 12:00:14;;;;;;;5.88;2.65;;;25.90;1.00;;;;;;5006991;28;20050;-68
2023/06/09 12:02:41;;;;;;;4.18;2.95;;;25.90;1.00;;;;;;5002704;28;20471;-68
2023/06/09 12:05:11;;;;;;;5.80;2.70;;;26.00;1.00;;;;;;4987726;28;20492;-69
2023/06/09 12:07:41;;;;;;;3.35;2.22;;;25.90;1.00;;;;;;4972201;28;20117;-69
2023/06/09 12:10:07;;;;;;;9.88;3.15;;;25.80;1.00;;;;;;4985950;28;20115;-68
2023/06/09 12:12:47;;;;;;;5.20;2.70;;;25.70;1.00;;;;;;4988241;28;20077;-69
2023/06/09 12:15:15;;;;;;;10.50;2.63;;;25.70;1.00;;;;;;4983023;28;20443;-69
2023/06/09 12:17:41;;;;;;;3.65;2.55;;;25.70;1.00;;;;;;4987546;28;20105;-68
2023/06/09 12:20:26;;;;;;;4.82;2.60;;;25.70;1.00;;;;;;4987390;28;20061;-70
2023/06/09 12:23:02;;;;;;;7.30;3.40;;;25.70;1.00;;;;;;4987429;28;20125;-68
2023/06/09 12:25:32;;;;;;;3.63;2.17;;;25.60;1.00;;;;;;4967720;28;20065;-69
2023/06/09 12:28:19;;;;;;;5.47;2.28;;;25.70;1.00;;;;;;4984812;28;20038;-69
2023/06/09 12:30:49;;;;;;;4.90;2.50;;;25.70;1.00;;;;;;4967976;28;20108;-69
2023/06/09 12:33:18;;;;;;;2.80;2.38;;;25.70;1.00;;;;;;4961217;28;20479;-68
2023/06/09 12:36:02;;;;;;;5.75;2.65;;;25.70;1.00;;;;;;4962126;28;20061;-69
2023/06/09 12:38:28;;;;;;;8.00;2.63;;;25.80;1.00;;;;;;4970857;28;20087;-69
2023/06/09 12:41:08;;;;;;;6.75;2.53;;;25.90;1.00;;;;;;4976748;28;20030;-69
2023/06/09 12:43:49;;;;;;;4.90;2.70;;;25.90;1.00;;;;;;4958484;28;20058;-69
2023/06/09 12:46:37;;;;;;;3.90;2.50;;;25.90;1.00;;;;;;4983939;28;20054;-69
2023/06/09 12:49:05;;;;;;;8.35;2.60;;;25.80;1.00;;;;;;4988933;28;20077;-68
2023/06/09 12:51:33;;;;;;;5.00;2.78;;;25.80;1.00;;;;;;4987643;28;20085;-69
2023/06/09 12:53:59;;;;;;;5.03;2.67;;;25.80;1.00;;;;;;4987251;28;20493;-69